sensor_id;sensor_type;location;lat;lon;timestamp;P1;durP1;ratioP1;P2;durP2;ratioP2
50519;SDS011;36468;44.098;3.078;2023-04-25T00:01:14;33.85;;;10.20;;
50519;SDS011;36468;44.098;3.078;2023-04-25T00:03:40;20.10;;;9.43;;
50519;SDS011;36468;44.098;3.078;2023-04-25T00:06:06;25.27;;;11.70;;
50519;SDS011;36468;44.098;3.078;2023-04-25T00:08:33;20.23;;;10.18;;
50519;SDS011;36468;44.098;3.078;2023-04-25T00:11:00;19.60;;;10.55;;
50519;SDS011;36468;44.098;3.078;2023-04-25T00:13:26;22.02;;;11.82;;
50519;SDS011;36468;44.098;3.078;2023-04-25T00:15:52;24.50;;;11.27;;
50519;SDS011;36468;44.098;3.078;2023-04-25T00:18:19;25.60;;;12.18;;
50519;SDS011;36468;44.098;3.078;2023-04-25T00:20:45;34.63;;;10.77;;
50519;SDS011;36468;44.098;3.078;2023-04-25T00:23:12;28.77;;;11.57;;
50519;SDS011;36468;44.098;3.078;2023-04-25T00:25:43;24.85;;;11.88;;
50519;SDS011;36468;44.098;3.078;2023-04-25T00:28:09;26.30;;;11.27;;
50519;SDS011;36468;44.098;3.078;2023-04-25T00:30:36;19.38;;;10.60;;
50519;SDS011;36468;44.098;3.078;2023-04-25T00:33:02;59.45;;;13.00;;
50519;SDS011;36468;44.098;3.078;2023-04-25T00:35:28;26.23;;;10.80;;
50519;SDS011;36468;44.098;3.078;2023-04-25T00:37:54;31.00;;;11.80;;
50519;SDS011;36468;44.098;3.078;2023-04-25T00:40:20;63.00;;;15.35;;
50519;SDS011;36468;44.098;3.078;2023-04-25T00:42:46;22.45;;;11.00;;
50519;SDS011;36468;44.098;3.078;2023-04-25T00:45:13;31.55;;;14.50;;
50519;SDS011;36468;44.098;3.078;2023-04-25T00:47:40;23.25;;;10.93;;
50519;SDS011;36468;44.098;3.078;2023-04-25T00:50:07;20.70;;;11.32;;
50519;SDS011;36468;44.098;3.078;2023-04-25T00:52:33;24.73;;;11.70;;
50519;SDS011;36468;44.098;3.078;2023-04-25T00:54:59;32.17;;;13.90;;
50519;SDS011;36468;44.098;3.078;2023-04-25T00:57:26;32.45;;;15.65;;
50519;SDS011;36468;44.098;3.078;2023-04-25T00:59:53;27.95;;;13.93;;
50519;SDS011;36468;44.098;3.078;2023-04-25T01:02:20;36.53;;;15.15;;
50519;SDS011;36468;44.098;3.078;2023-04-25T01:04:47;23.55;;;13.35;;
50519;SDS011;36468;44.098;3.078;2023-04-25T01:07:13;24.90;;;12.80;;
50519;SDS011;36468;44.098;3.078;2023-04-25T01:09:40;22.33;;;11.90;;
50519;SDS011;36468;44.098;3.078;2023-04-25T01:12:06;25.90;;;14.60;;
50519;SDS011;36468;44.098;3.078;2023-04-25T01:14:32;26.83;;;11.95;;
50519;SDS011;36468;44.098;3.078;2023-04-25T01:16:58;23.85;;;13.18;;
50519;SDS011;36468;44.098;3.078;2023-04-25T01:19:24;26.83;;;12.55;;
50519;SDS011;36468;44.098;3.078;2023-04-25T01:21:51;26.58;;;13.65;;
50519;SDS011;36468;44.098;3.078;2023-04-25T01:24:17;20.25;;;11.18;;
50519;SDS011;36468;44.098;3.078;2023-04-25T01:26:43;23.77;;;13.52;;
50519;SDS011;36468;44.098;3.078;2023-04-25T01:29:14;30.05;;;15.32;;
50519;SDS011;36468;44.098;3.078;2023-04-25T01:31:40;25.90;;;13.68;;
50519;SDS011;36468;44.098;3.078;2023-04-25T01:34:06;28.10;;;13.05;;
50519;SDS011;36468;44.098;3.078;2023-04-25T01:36:32;26.10;;;13.90;;
50519;SDS011;36468;44.098;3.078;2023-04-25T01:39:00;29.92;;;14.18;;
50519;SDS011;36468;44.098;3.078;2023-04-25T01:41:26;22.40;;;12.98;;
50519;SDS011;36468;44.098;3.078;2023-04-25T01:43:53;23.23;;;12.95;;
50519;SDS011;36468;44.098;3.078;2023-04-25T01:46:19;30.80;;;14.60;;
50519;SDS011;36468;44.098;3.078;2023-04-25T01:48:45;24.70;;;12.48;;
50519;SDS011;36468;44.098;3.078;2023-04-25T01:51:11;23.67;;;13.13;;
50519;SDS011;36468;44.098;3.078;2023-04-25T01:53:38;21.23;;;11.88;;
50519;SDS011;36468;44.098;3.078;2023-04-25T01:56:04;30.63;;;15.00;;
50519;SDS011;36468;44.098;3.078;2023-04-25T01:58:30;23.25;;;13.32;;
50519;SDS011;36468;44.098;3.078;2023-04-25T02:00:56;26.27;;;14.23;;
50519;SDS011;36468;44.098;3.078;2023-04-25T02:03:22;23.55;;;13.00;;
50519;SDS011;36468;44.098;3.078;2023-04-25T02:05:48;27.90;;;14.40;;
50519;SDS011;36468;44.098;3.078;2023-04-25T02:08:16;26.13;;;13.02;;
50519;SDS011;36468;44.098;3.078;2023-04-25T02:10:42;24.67;;;13.80;;
50519;SDS011;36468;44.098;3.078;2023-04-25T02:13:08;23.98;;;12.32;;
50519;SDS011;36468;44.098;3.078;2023-04-25T02:15:34;28.13;;;14.23;;
50519;SDS011;36468;44.098;3.078;2023-04-25T02:18:00;25.17;;;13.02;;
50519;SDS011;36468;44.098;3.078;2023-04-25T02:20:27;24.52;;;13.07;;
50519;SDS011;36468;44.098;3.078;2023-04-25T02:22:53;24.02;;;13.65;;
50519;SDS011;36468;44.098;3.078;2023-04-25T02:25:20;27.35;;;13.80;;
50519;SDS011;36468;44.098;3.078;2023-04-25T02:27:46;23.55;;;13.73;;
50519;SDS011;36468;44.098;3.078;2023-04-25T02:30:13;25.50;;;14.32;;
50519;SDS011;36468;44.098;3.078;2023-04-25T02:32:39;29.67;;;14.70;;
50519;SDS011;36468;44.098;3.078;2023-04-25T02:35:06;31.23;;;15.68;;
50519;SDS011;36468;44.098;3.078;2023-04-25T02:37:33;34.15;;;16.02;;
50519;SDS011;36468;44.098;3.078;2023-04-25T02:39:59;26.63;;;13.68;;
50519;SDS011;36468;44.098;3.078;2023-04-25T02:42:25;29.13;;;13.70;;
50519;SDS011;36468;44.098;3.078;2023-04-25T02:44:52;29.98;;;15.05;;
50519;SDS011;36468;44.098;3.078;2023-04-25T02:47:18;32.00;;;15.20;;
50519;SDS011;36468;44.098;3.078;2023-04-25T02:49:44;29.60;;;15.73;;
50519;SDS011;36468;44.098;3.078;2023-04-25T02:52:10;36.53;;;17.80;;
50519;SDS011;36468;44.098;3.078;2023-04-25T02:54:37;30.85;;;16.67;;
50519;SDS011;36468;44.098;3.078;2023-04-25T02:57:04;36.05;;;17.30;;
50519;SDS011;36468;44.098;3.078;2023-04-25T02:59:30;31.08;;;16.02;;
50519;SDS011;36468;44.098;3.078;2023-04-25T03:01:56;27.98;;;14.68;;
50519;SDS011;36468;44.098;3.078;2023-04-25T03:04:22;32.80;;;15.73;;
50519;SDS011;36468;44.098;3.078;2023-04-25T03:06:49;35.15;;;17.05;;
50519;SDS011;36468;44.098;3.078;2023-04-25T03:09:15;25.02;;;13.20;;
50519;SDS011;36468;44.098;3.078;2023-04-25T03:11:41;27.52;;;14.05;;
50519;SDS011;36468;44.098;3.078;2023-04-25T03:14:07;26.48;;;13.52;;
50519;SDS011;36468;44.098;3.078;2023-04-25T03:16:33;31.33;;;15.30;;
50519;SDS011;36468;44.098;3.078;2023-04-25T03:18:59;22.48;;;13.52;;
50519;SDS011;36468;44.098;3.078;2023-04-25T03:21:25;26.83;;;13.85;;
50519;SDS011;36468;44.098;3.078;2023-04-25T03:23:51;25.63;;;13.32;;
50519;SDS011;36468;44.098;3.078;2023-04-25T03:26:17;26.85;;;14.65;;
50519;SDS011;36468;44.098;3.078;2023-04-25T03:28:43;23.45;;;14.07;;
50519;SDS011;36468;44.098;3.078;2023-04-25T03:31:09;21.75;;;13.50;;
50519;SDS011;36468;44.098;3.078;2023-04-25T03:33:35;26.85;;;14.05;;
50519;SDS011;36468;44.098;3.078;2023-04-25T03:36:02;26.20;;;14.27;;
50519;SDS011;36468;44.098;3.078;2023-04-25T03:38:28;24.92;;;13.60;;
50519;SDS011;36468;44.098;3.078;2023-04-25T03:40:54;25.88;;;14.02;;
50519;SDS011;36468;44.098;3.078;2023-04-25T03:43:21;25.00;;;14.27;;
50519;SDS011;36468;44.098;3.078;2023-04-25T03:45:47;28.58;;;16.40;;
50519;SDS011;36468;44.098;3.078;2023-04-25T03:48:13;19.58;;;12.75;;
50519;SDS011;36468;44.098;3.078;2023-04-25T03:50:39;24.92;;;14.23;;
50519;SDS011;36468;44.098;3.078;2023-04-25T03:53:05;23.10;;;13.70;;
50519;SDS011;36468;44.098;3.078;2023-04-25T03:55:31;27.02;;;14.18;;
50519;SDS011;36468;44.098;3.078;2023-04-25T03:57:58;26.30;;;14.30;;
50519;SDS011;36468;44.098;3.078;2023-04-25T04:00:24;27.15;;;14.57;;
50519;SDS011;36468;44.098;3.078;2023-04-25T04:02:50;27.35;;;14.60;;
50519;SDS011;36468;44.098;3.078;2023-04-25T04:05:16;23.08;;;13.63;;
50519;SDS011;36468;44.098;3.078;2023-04-25T04:07:42;24.98;;;14.07;;
50519;SDS011;36468;44.098;3.078;2023-04-25T04:10:09;19.90;;;13.02;;
50519;SDS011;36468;44.098;3.078;2023-04-25T04:12:35;22.63;;;13.90;;
50519;SDS011;36468;44.098;3.078;2023-04-25T04:15:02;20.70;;;13.40;;
50519;SDS011;36468;44.098;3.078;2023-04-25T04:17:28;22.55;;;12.82;;
50519;SDS011;36468;44.098;3.078;2023-04-25T04:19:55;24.00;;;13.63;;
50519;SDS011;36468;44.098;3.078;2023-04-25T04:22:21;22.20;;;14.30;;
50519;SDS011;36468;44.098;3.078;2023-04-25T04:24:47;27.60;;;15.30;;
50519;SDS011;36468;44.098;3.078;2023-04-25T04:27:15;30.05;;;15.75;;
50519;SDS011;36468;44.098;3.078;2023-04-25T04:29:42;24.80;;;13.82;;
50519;SDS011;36468;44.098;3.078;2023-04-25T04:32:08;24.27;;;15.00;;
50519;SDS011;36468;44.098;3.078;2023-04-25T04:34:34;29.33;;;15.10;;
50519;SDS011;36468;44.098;3.078;2023-04-25T04:37:00;28.02;;;16.08;;
50519;SDS011;36468;44.098;3.078;2023-04-25T04:39:26;26.17;;;15.23;;
50519;SDS011;36468;44.098;3.078;2023-04-25T04:41:53;26.38;;;15.05;;
50519;SDS011;36468;44.098;3.078;2023-04-25T04:44:19;27.02;;;15.13;;
50519;SDS011;36468;44.098;3.078;2023-04-25T04:46:45;23.08;;;14.27;;
50519;SDS011;36468;44.098;3.078;2023-04-25T04:49:11;27.30;;;15.18;;
50519;SDS011;36468;44.098;3.078;2023-04-25T04:51:41;25.08;;;14.73;;
50519;SDS011;36468;44.098;3.078;2023-04-25T04:54:09;28.50;;;15.07;;
50519;SDS011;36468;44.098;3.078;2023-04-25T04:56:35;24.23;;;14.75;;
50519;SDS011;36468;44.098;3.078;2023-04-25T04:59:01;28.33;;;16.05;;
50519;SDS011;36468;44.098;3.078;2023-04-25T05:01:27;33.42;;;18.55;;
50519;SDS011;36468;44.098;3.078;2023-04-25T05:03:55;27.17;;;16.00;;
50519;SDS011;36468;44.098;3.078;2023-04-25T05:06:25;29.55;;;16.42;;
50519;SDS011;36468;44.098;3.078;2023-04-25T05:08:52;29.40;;;17.73;;
50519;SDS011;36468;44.098;3.078;2023-04-25T05:11:19;29.50;;;16.48;;
50519;SDS011;36468;44.098;3.078;2023-04-25T05:13:46;35.83;;;19.02;;
50519;SDS011;36468;44.098;3.078;2023-04-25T05:16:12;30.95;;;17.67;;
50519;SDS011;36468;44.098;3.078;2023-04-25T05:18:39;20.60;;;14.02;;
50519;SDS011;36468;44.098;3.078;2023-04-25T05:21:05;30.25;;;16.42;;
50519;SDS011;36468;44.098;3.078;2023-04-25T05:23:32;33.65;;;18.90;;
50519;SDS011;36468;44.098;3.078;2023-04-25T05:25:58;33.40;;;18.65;;
50519;SDS011;36468;44.098;3.078;2023-04-25T05:28:24;30.50;;;17.25;;
50519;SDS011;36468;44.098;3.078;2023-04-25T05:30:50;27.38;;;17.08;;
50519;SDS011;36468;44.098;3.078;2023-04-25T05:33:17;24.05;;;13.73;;
50519;SDS011;36468;44.098;3.078;2023-04-25T05:35:43;23.35;;;13.32;;
50519;SDS011;36468;44.098;3.078;2023-04-25T05:38:09;26.83;;;15.07;;
50519;SDS011;36468;44.098;3.078;2023-04-25T05:40:36;22.75;;;13.95;;
50519;SDS011;36468;44.098;3.078;2023-04-25T05:43:02;20.38;;;12.57;;
50519;SDS011;36468;44.098;3.078;2023-04-25T05:45:28;19.10;;;11.05;;
50519;SDS011;36468;44.098;3.078;2023-04-25T05:47:54;19.70;;;11.50;;
50519;SDS011;36468;44.098;3.078;2023-04-25T05:50:20;17.20;;;9.88;;
50519;SDS011;36468;44.098;3.078;2023-04-25T05:52:46;12.30;;;8.50;;
50519;SDS011;36468;44.098;3.078;2023-04-25T05:55:12;14.15;;;8.13;;
50519;SDS011;36468;44.098;3.078;2023-04-25T05:57:38;19.25;;;9.60;;
50519;SDS011;36468;44.098;3.078;2023-04-25T06:00:11;10.00;;;7.40;;
50519;SDS011;36468;44.098;3.078;2023-04-25T06:02:37;9.20;;;6.05;;
50519;SDS011;36468;44.098;3.078;2023-04-25T06:05:03;12.32;;;7.18;;
50519;SDS011;36468;44.098;3.078;2023-04-25T06:07:30;8.63;;;5.90;;
50519;SDS011;36468;44.098;3.078;2023-04-25T06:09:56;9.00;;;6.22;;
50519;SDS011;36468;44.098;3.078;2023-04-25T06:12:22;8.30;;;5.70;;
50519;SDS011;36468;44.098;3.078;2023-04-25T06:14:48;8.63;;;6.03;;
50519;SDS011;36468;44.098;3.078;2023-04-25T06:17:14;8.90;;;5.88;;
50519;SDS011;36468;44.098;3.078;2023-04-25T06:19:40;11.98;;;7.15;;
50519;SDS011;36468;44.098;3.078;2023-04-25T06:22:06;9.32;;;5.97;;
50519;SDS011;36468;44.098;3.078;2023-04-25T06:24:33;8.80;;;5.32;;
50519;SDS011;36468;44.098;3.078;2023-04-25T06:26:59;7.40;;;5.72;;
50519;SDS011;36468;44.098;3.078;2023-04-25T06:29:26;12.35;;;6.70;;
50519;SDS011;36468;44.098;3.078;2023-04-25T06:31:52;9.13;;;6.25;;
50519;SDS011;36468;44.098;3.078;2023-04-25T06:34:18;7.82;;;4.47;;
50519;SDS011;36468;44.098;3.078;2023-04-25T06:36:44;6.45;;;3.97;;
50519;SDS011;36468;44.098;3.078;2023-04-25T06:39:10;5.90;;;4.43;;
50519;SDS011;36468;44.098;3.078;2023-04-25T06:41:36;6.88;;;4.10;;
50519;SDS011;36468;44.098;3.078;2023-04-25T06:44:03;6.60;;;4.53;;
50519;SDS011;36468;44.098;3.078;2023-04-25T06:46:29;4.35;;;3.30;;
50519;SDS011;36468;44.098;3.078;2023-04-25T06:48:55;5.03;;;3.13;;
50519;SDS011;36468;44.098;3.078;2023-04-25T06:51:21;4.35;;;3.13;;
50519;SDS011;36468;44.098;3.078;2023-04-25T06:53:47;5.97;;;3.33;;
50519;SDS011;36468;44.098;3.078;2023-04-25T06:56:13;3.83;;;2.50;;
50519;SDS011;36468;44.098;3.078;2023-04-25T06:58:39;4.50;;;2.58;;
50519;SDS011;36468;44.098;3.078;2023-04-25T07:01:05;3.83;;;2.60;;
50519;SDS011;36468;44.098;3.078;2023-04-25T07:03:31;4.10;;;2.70;;
50519;SDS011;36468;44.098;3.078;2023-04-25T07:05:57;5.75;;;2.70;;
50519;SDS011;36468;44.098;3.078;2023-04-25T07:08:23;7.65;;;2.53;;
50519;SDS011;36468;44.098;3.078;2023-04-25T07:10:49;5.20;;;2.30;;
50519;SDS011;36468;44.098;3.078;2023-04-25T07:13:15;3.55;;;2.40;;
50519;SDS011;36468;44.098;3.078;2023-04-25T07:15:41;6.82;;;2.78;;
50519;SDS011;36468;44.098;3.078;2023-04-25T07:18:07;6.72;;;2.63;;
50519;SDS011;36468;44.098;3.078;2023-04-25T07:20:33;5.68;;;2.90;;
50519;SDS011;36468;44.098;3.078;2023-04-25T07:22:59;3.33;;;2.50;;
50519;SDS011;36468;44.098;3.078;2023-04-25T07:25:26;5.68;;;2.33;;
50519;SDS011;36468;44.098;3.078;2023-04-25T07:27:52;4.53;;;2.08;;
50519;SDS011;36468;44.098;3.078;2023-04-25T07:30:18;3.70;;;1.85;;
50519;SDS011;36468;44.098;3.078;2023-04-25T07:32:44;8.00;;;2.20;;
50519;SDS011;36468;44.098;3.078;2023-04-25T07:35:10;3.15;;;1.83;;
50519;SDS011;36468;44.098;3.078;2023-04-25T07:37:36;1.67;;;1.45;;
50519;SDS011;36468;44.098;3.078;2023-04-25T07:40:02;5.70;;;1.88;;
50519;SDS011;36468;44.098;3.078;2023-04-25T07:42:29;2.28;;;2.08;;
50519;SDS011;36468;44.098;3.078;2023-04-25T07:44:55;4.82;;;2.20;;
50519;SDS011;36468;44.098;3.078;2023-04-25T07:47:21;2.63;;;1.65;;
50519;SDS011;36468;44.098;3.078;2023-04-25T07:49:47;2.40;;;1.58;;
50519;SDS011;36468;44.098;3.078;2023-04-25T07:52:13;2.85;;;1.80;;
50519;SDS011;36468;44.098;3.078;2023-04-25T07:54:40;2.10;;;1.30;;
50519;SDS011;36468;44.098;3.078;2023-04-25T07:57:06;2.53;;;1.08;;
50519;SDS011;36468;44.098;3.078;2023-04-25T07:59:32;2.13;;;1.20;;
50519;SDS011;36468;44.098;3.078;2023-04-25T08:01:58;4.47;;;1.10;;
50519;SDS011;36468;44.098;3.078;2023-04-25T08:04:24;2.53;;;1.42;;
50519;SDS011;36468;44.098;3.078;2023-04-25T08:06:51;4.00;;;1.25;;
50519;SDS011;36468;44.098;3.078;2023-04-25T08:09:18;2.40;;;1.30;;
50519;SDS011;36468;44.098;3.078;2023-04-25T08:11:45;2.03;;;1.30;;
50519;SDS011;36468;44.098;3.078;2023-04-25T08:14:11;1.98;;;0.90;;
50519;SDS011;36468;44.098;3.078;2023-04-25T08:16:37;2.40;;;1.13;;
50519;SDS011;36468;44.098;3.078;2023-04-25T08:19:04;2.38;;;1.08;;
50519;SDS011;36468;44.098;3.078;2023-04-25T08:21:30;3.65;;;2.30;;
50519;SDS011;36468;44.098;3.078;2023-04-25T08:23:56;1.23;;;0.98;;
50519;SDS011;36468;44.098;3.078;2023-04-25T08:26:23;1.13;;;0.88;;
50519;SDS011;36468;44.098;3.078;2023-04-25T08:28:49;2.65;;;1.27;;
50519;SDS011;36468;44.098;3.078;2023-04-25T08:31:16;2.42;;;1.20;;
50519;SDS011;36468;44.098;3.078;2023-04-25T08:33:42;2.92;;;0.95;;
50519;SDS011;36468;44.098;3.078;2023-04-25T08:36:08;1.35;;;0.90;;
50519;SDS011;36468;44.098;3.078;2023-04-25T08:38:34;2.03;;;1.10;;
50519;SDS011;36468;44.098;3.078;2023-04-25T08:41:01;0.98;;;0.88;;
50519;SDS011;36468;44.098;3.078;2023-04-25T08:43:28;2.08;;;1.02;;
50519;SDS011;36468;44.098;3.078;2023-04-25T08:45:59;1.27;;;1.02;;
50519;SDS011;36468;44.098;3.078;2023-04-25T08:48:27;1.15;;;1.00;;
50519;SDS011;36468;44.098;3.078;2023-04-25T08:50:54;1.75;;;0.90;;
50519;SDS011;36468;44.098;3.078;2023-04-25T08:53:30;1.73;;;1.20;;
50519;SDS011;36468;44.098;3.078;2023-04-25T08:55:57;3.92;;;0.90;;
50519;SDS011;36468;44.098;3.078;2023-04-25T08:58:23;1.25;;;0.85;;
50519;SDS011;36468;44.098;3.078;2023-04-25T09:00:50;2.30;;;0.98;;
50519;SDS011;36468;44.098;3.078;2023-04-25T09:03:17;1.95;;;0.80;;
50519;SDS011;36468;44.098;3.078;2023-04-25T09:05:43;4.00;;;0.82;;
50519;SDS011;36468;44.098;3.078;2023-04-25T09:08:09;0.98;;;0.70;;
50519;SDS011;36468;44.098;3.078;2023-04-25T09:10:36;1.67;;;0.70;;
50519;SDS011;36468;44.098;3.078;2023-04-25T09:15:29;1.10;;;0.80;;
50519;SDS011;36468;44.098;3.078;2023-04-25T09:17:56;2.28;;;0.50;;
50519;SDS011;36468;44.098;3.078;2023-04-25T09:20:22;0.70;;;0.50;;
50519;SDS011;36468;44.098;3.078;2023-04-25T09:22:49;1.77;;;1.00;;
50519;SDS011;36468;44.098;3.078;2023-04-25T09:25:15;1.00;;;0.60;;
50519;SDS011;36468;44.098;3.078;2023-04-25T09:27:49;1.15;;;0.50;;
50519;SDS011;36468;44.098;3.078;2023-04-25T09:30:16;2.22;;;0.43;;
50519;SDS011;36468;44.098;3.078;2023-04-25T09:32:43;1.10;;;0.45;;
50519;SDS011;36468;44.098;3.078;2023-04-25T09:35:10;0.57;;;0.50;;
50519;SDS011;36468;44.098;3.078;2023-04-25T09:37:36;2.67;;;0.40;;
50519;SDS011;36468;44.098;3.078;2023-04-25T09:40:04;3.85;;;0.50;;
50519;SDS011;36468;44.098;3.078;2023-04-25T09:42:32;1.20;;;0.47;;
50519;SDS011;36468;44.098;3.078;2023-04-25T09:44:59;2.15;;;0.50;;
50519;SDS011;36468;44.098;3.078;2023-04-25T09:47:29;4.63;;;1.27;;
50519;SDS011;36468;44.098;3.078;2023-04-25T09:49:55;2.65;;;1.00;;
50519;SDS011;36468;44.098;3.078;2023-04-25T09:52:24;4.35;;;1.77;;
50519;SDS011;36468;44.098;3.078;2023-04-25T09:54:51;8.85;;;3.95;;
50519;SDS011;36468;44.098;3.078;2023-04-25T09:57:18;3.85;;;2.15;;
50519;SDS011;36468;44.098;3.078;2023-04-25T09:59:49;6.95;;;1.98;;
50519;SDS011;36468;44.098;3.078;2023-04-25T10:02:16;3.03;;;1.33;;
50519;SDS011;36468;44.098;3.078;2023-04-25T10:04:44;4.78;;;1.52;;
50519;SDS011;36468;44.098;3.078;2023-04-25T10:07:13;1.35;;;0.90;;
50519;SDS011;36468;44.098;3.078;2023-04-25T10:09:39;2.13;;;1.30;;
50519;SDS011;36468;44.098;3.078;2023-04-25T10:12:06;12.75;;;3.80;;
50519;SDS011;36468;44.098;3.078;2023-04-25T10:14:33;9.50;;;2.92;;
50519;SDS011;36468;44.098;3.078;2023-04-25T10:16:59;28.15;;;9.65;;
50519;SDS011;36468;44.098;3.078;2023-04-25T10:19:26;6.68;;;2.83;;
50519;SDS011;36468;44.098;3.078;2023-04-25T10:21:55;5.18;;;1.00;;
50519;SDS011;36468;44.098;3.078;2023-04-25T10:24:22;1.98;;;1.10;;
50519;SDS011;36468;44.098;3.078;2023-04-25T10:26:48;1.63;;;0.80;;
50519;SDS011;36468;44.098;3.078;2023-04-25T10:29:24;3.40;;;1.20;;
50519;SDS011;36468;44.098;3.078;2023-04-25T10:31:50;2.72;;;1.52;;
50519;SDS011;36468;44.098;3.078;2023-04-25T10:34:16;5.32;;;0.90;;
50519;SDS011;36468;44.098;3.078;2023-04-25T10:36:43;1.83;;;1.20;;
50519;SDS011;36468;44.098;3.078;2023-04-25T10:39:14;2.05;;;0.80;;
50519;SDS011;36468;44.098;3.078;2023-04-25T10:41:47;1.52;;;0.70;;
50519;SDS011;36468;44.098;3.078;2023-04-25T10:44:13;3.97;;;1.40;;
50519;SDS011;36468;44.098;3.078;2023-04-25T10:46:40;8.13;;;0.85;;
50519;SDS011;36468;44.098;3.078;2023-04-25T10:49:06;2.03;;;0.82;;
50519;SDS011;36468;44.098;3.078;2023-04-25T10:51:35;1.58;;;0.73;;
50519;SDS011;36468;44.098;3.078;2023-04-25T11:01:29;0.90;;;0.70;;
50519;SDS011;36468;44.098;3.078;2023-04-25T11:04:00;1.40;;;0.68;;
50519;SDS011;36468;44.098;3.078;2023-04-25T11:06:46;7.72;;;6.13;;
50519;SDS011;36468;44.098;3.078;2023-04-25T11:09:17;2.67;;;1.42;;
50519;SDS011;36468;44.098;3.078;2023-04-25T11:11:43;1.50;;;1.00;;
50519;SDS011;36468;44.098;3.078;2023-04-25T11:14:09;0.80;;;0.57;;
50519;SDS011;36468;44.098;3.078;2023-04-25T11:16:35;0.43;;;0.43;;
50519;SDS011;36468;44.098;3.078;2023-04-25T11:19:01;0.77;;;0.60;;
50519;SDS011;36468;44.098;3.078;2023-04-25T11:21:28;4.85;;;2.35;;
50519;SDS011;36468;44.098;3.078;2023-04-25T11:23:56;1.17;;;0.60;;
50519;SDS011;36468;44.098;3.078;2023-04-25T11:26:24;1.50;;;0.45;;
50519;SDS011;36468;44.098;3.078;2023-04-25T11:28:50;1.48;;;0.70;;
50519;SDS011;36468;44.098;3.078;2023-04-25T11:31:18;0.63;;;0.35;;
50519;SDS011;36468;44.098;3.078;2023-04-25T11:33:46;0.50;;;0.50;;
50519;SDS011;36468;44.098;3.078;2023-04-25T11:36:12;1.38;;;0.52;;
50519;SDS011;36468;44.098;3.078;2023-04-25T11:38:38;1.52;;;0.32;;
50519;SDS011;36468;44.098;3.078;2023-04-25T11:41:05;1.05;;;0.47;;
50519;SDS011;36468;44.098;3.078;2023-04-25T11:43:31;0.70;;;0.55;;
50519;SDS011;36468;44.098;3.078;2023-04-25T11:45:57;0.82;;;0.57;;
50519;SDS011;36468;44.098;3.078;2023-04-25T11:48:23;1.33;;;0.52;;
50519;SDS011;36468;44.098;3.078;2023-04-25T11:50:49;2.22;;;0.70;;
50519;SDS011;36468;44.098;3.078;2023-04-25T11:53:17;0.90;;;0.60;;
50519;SDS011;36468;44.098;3.078;2023-04-25T11:55:43;1.60;;;0.50;;
50519;SDS011;36468;44.098;3.078;2023-04-25T11:58:10;1.50;;;0.50;;
50519;SDS011;36468;44.098;3.078;2023-04-25T12:00:38;0.80;;;0.40;;
50519;SDS011;36468;44.098;3.078;2023-04-25T12:03:08;0.55;;;0.47;;
50519;SDS011;36468;44.098;3.078;2023-04-25T12:05:34;1.08;;;0.63;;
50519;SDS011;36468;44.098;3.078;2023-04-25T12:10:38;1.40;;;0.50;;
50519;SDS011;36468;44.098;3.078;2023-04-25T12:13:20;1.42;;;0.60;;
50519;SDS011;36468;44.098;3.078;2023-04-25T12:15:46;3.22;;;2.22;;
50519;SDS011;36468;44.098;3.078;2023-04-25T12:18:13;2.30;;;0.90;;
50519;SDS011;36468;44.098;3.078;2023-04-25T12:20:40;8.05;;;5.80;;
50519;SDS011;36468;44.098;3.078;2023-04-25T12:23:07;1.25;;;0.50;;
50519;SDS011;36468;44.098;3.078;2023-04-25T12:25:34;5.93;;;2.70;;
50519;SDS011;36468;44.098;3.078;2023-04-25T12:28:13;3.00;;;0.90;;
50519;SDS011;36468;44.098;3.078;2023-04-25T12:33:18;3.60;;;2.08;;
50519;SDS011;36468;44.098;3.078;2023-04-25T12:35:44;4.43;;;1.75;;
50519;SDS011;36468;44.098;3.078;2023-04-25T12:38:10;2.67;;;1.10;;
50519;SDS011;36468;44.098;3.078;2023-04-25T12:40:36;1.40;;;0.50;;
50519;SDS011;36468;44.098;3.078;2023-04-25T12:43:02;1.25;;;0.70;;
50519;SDS011;36468;44.098;3.078;2023-04-25T12:45:28;0.88;;;0.60;;
50519;SDS011;36468;44.098;3.078;2023-04-25T12:47:55;1.58;;;0.60;;
50519;SDS011;36468;44.098;3.078;2023-04-25T12:50:21;0.65;;;0.40;;
50519;SDS011;36468;44.098;3.078;2023-04-25T12:52:47;3.67;;;0.60;;
50519;SDS011;36468;44.098;3.078;2023-04-25T12:55:13;2.28;;;0.50;;
50519;SDS011;36468;44.098;3.078;2023-04-25T12:57:39;2.13;;;0.50;;
50519;SDS011;36468;44.098;3.078;2023-04-25T13:00:05;1.60;;;0.70;;
50519;SDS011;36468;44.098;3.078;2023-04-25T13:02:33;1.88;;;0.98;;
50519;SDS011;36468;44.098;3.078;2023-04-25T13:05:00;3.50;;;1.38;;
50519;SDS011;36468;44.098;3.078;2023-04-25T13:07:26;4.47;;;0.90;;
50519;SDS011;36468;44.098;3.078;2023-04-25T13:09:52;3.00;;;1.00;;
50519;SDS011;36468;44.098;3.078;2023-04-25T13:12:18;4.40;;;1.08;;
50519;SDS011;36468;44.098;3.078;2023-04-25T13:14:44;3.55;;;1.13;;
50519;SDS011;36468;44.098;3.078;2023-04-25T13:17:10;3.00;;;1.45;;
50519;SDS011;36468;44.098;3.078;2023-04-25T13:19:36;6.78;;;1.30;;
50519;SDS011;36468;44.098;3.078;2023-04-25T13:22:03;7.00;;;1.90;;
50519;SDS011;36468;44.098;3.078;2023-04-25T13:24:29;14.90;;;9.20;;
50519;SDS011;36468;44.098;3.078;2023-04-25T13:26:55;6.13;;;3.72;;
50519;SDS011;36468;44.098;3.078;2023-04-25T13:29:21;2.40;;;1.60;;
50519;SDS011;36468;44.098;3.078;2023-04-25T13:31:47;3.22;;;1.70;;
50519;SDS011;36468;44.098;3.078;2023-04-25T13:34:14;4.95;;;1.60;;
50519;SDS011;36468;44.098;3.078;2023-04-25T13:36:40;3.22;;;1.10;;
50519;SDS011;36468;44.098;3.078;2023-04-25T13:39:06;3.60;;;1.10;;
50519;SDS011;36468;44.098;3.078;2023-04-25T13:41:32;4.47;;;1.48;;
50519;SDS011;36468;44.098;3.078;2023-04-25T13:43:58;2.33;;;1.40;;
50519;SDS011;36468;44.098;3.078;2023-04-25T13:46:25;3.92;;;1.48;;
50519;SDS011;36468;44.098;3.078;2023-04-25T13:48:52;5.13;;;1.67;;
50519;SDS011;36468;44.098;3.078;2023-04-25T13:51:18;2.85;;;1.20;;
50519;SDS011;36468;44.098;3.078;2023-04-25T13:53:44;3.17;;;0.93;;
50519;SDS011;36468;44.098;3.078;2023-04-25T13:56:10;3.30;;;1.48;;
50519;SDS011;36468;44.098;3.078;2023-04-25T13:58:36;5.25;;;1.20;;
50519;SDS011;36468;44.098;3.078;2023-04-25T14:01:02;6.15;;;1.70;;
50519;SDS011;36468;44.098;3.078;2023-04-25T14:03:29;5.50;;;1.67;;
50519;SDS011;36468;44.098;3.078;2023-04-25T14:05:55;4.53;;;1.63;;
50519;SDS011;36468;44.098;3.078;2023-04-25T14:08:21;2.17;;;1.40;;
50519;SDS011;36468;44.098;3.078;2023-04-25T14:10:47;2.72;;;1.25;;
50519;SDS011;36468;44.098;3.078;2023-04-25T14:13:13;9.13;;;2.13;;
50519;SDS011;36468;44.098;3.078;2023-04-25T14:15:40;5.47;;;1.30;;
50519;SDS011;36468;44.098;3.078;2023-04-25T14:18:06;2.83;;;1.45;;
50519;SDS011;36468;44.098;3.078;2023-04-25T14:20:32;6.45;;;1.40;;
50519;SDS011;36468;44.098;3.078;2023-04-25T14:22:58;4.15;;;1.60;;
50519;SDS011;36468;44.098;3.078;2023-04-25T14:25:24;6.40;;;1.98;;
50519;SDS011;36468;44.098;3.078;2023-04-25T14:27:50;3.95;;;1.40;;
50519;SDS011;36468;44.098;3.078;2023-04-25T14:30:17;3.92;;;1.58;;
50519;SDS011;36468;44.098;3.078;2023-04-25T14:32:43;4.07;;;1.92;;
50519;SDS011;36468;44.098;3.078;2023-04-25T14:35:10;5.40;;;1.58;;
50519;SDS011;36468;44.098;3.078;2023-04-25T14:37:36;10.85;;;2.20;;
50519;SDS011;36468;44.098;3.078;2023-04-25T14:40:02;4.78;;;1.50;;
50519;SDS011;36468;44.098;3.078;2023-04-25T14:42:30;4.60;;;1.70;;
50519;SDS011;36468;44.098;3.078;2023-04-25T14:44:56;7.63;;;1.52;;
50519;SDS011;36468;44.098;3.078;2023-04-25T14:47:22;4.95;;;1.67;;